sensor_id;sensor_type;location;lat;lon;timestamp;temperature;humidity
7455;HTU21D;3769;51.208;4.454;2023-09-19T00:01:30;16.1;98.7
7455;HTU21D;3769;51.208;4.454;2023-09-19T00:06:30;16.1;98.7
7455;HTU21D;3769;51.208;4.454;2023-09-19T00:11:30;16.1;98.7
7455;HTU21D;3769;51.208;4.454;2023-09-19T00:16:30;16;98.7
7455;HTU21D;3769;51.208;4.454;2023-09-19T00:21:31;16;98.6
7455;HTU21D;3769;51.208;4.454;2023-09-19T00:26:31;16;98.6
7455;HTU21D;3769;51.208;4.454;2023-09-19T00:31:30;15.9;98.6
7455;HTU21D;3769;51.208;4.454;2023-09-19T00:36:30;15.9;98.6
7455;HTU21D;3769;51.208;4.454;2023-09-19T00:41:30;15.9;98.6
7455;HTU21D;3769;51.208;4.454;2023-09-19T00:46:31;15.9;98.6
7455;HTU21D;3769;51.208;4.454;2023-09-19T00:51:30;15.8;98.6
7455;HTU21D;3769;51.208;4.454;2023-09-19T00:56:30;15.7;98.6
7455;HTU21D;3769;51.208;4.454;2023-09-19T01:01:30;15.6;98.6
7455;HTU21D;3769;51.208;4.454;2023-09-19T01:06:30;15.8;98.6
7455;HTU21D;3769;51.208;4.454;2023-09-19T01:11:34;15.7;98.6
7455;HTU21D;3769;51.208;4.454;2023-09-19T01:16:32;15.7;98.6
7455;HTU21D;3769;51.208;4.454;2023-09-19T01:31:31;15.8;98.6
7455;HTU21D;3769;51.208;4.454;2023-09-19T01:36:31;15.7;98.6
7455;HTU21D;3769;51.208;4.454;2023-09-19T01:41:38;15.7;98.6
7455;HTU21D;3769;51.208;4.454;2023-09-19T01:46:33;15.6;98.6
7455;HTU21D;3769;51.208;4.454;2023-09-19T01:52:36;15.6;98.6
7455;HTU21D;3769;51.208;4.454;2023-09-19T01:56:31;15.7;98.6
7455;HTU21D;3769;51.208;4.454;2023-09-19T02:01:30;15.6;98.6
7455;HTU21D;3769;51.208;4.454;2023-09-19T02:06:30;15.7;98.6
7455;HTU21D;3769;51.208;4.454;2023-09-19T02:11:30;15.5;98.6
7455;HTU21D;3769;51.208;4.454;2023-09-19T02:16:30;15.5;98.6
7455;HTU21D;3769;51.208;4.454;2023-09-19T02:21:30;15.5;98.6
7455;HTU21D;3769;51.208;4.454;2023-09-19T02:26:30;15.6;98.6
7455;HTU21D;3769;51.208;4.454;2023-09-19T02:31:30;15.5;98.6
7455;HTU21D;3769;51.208;4.454;2023-09-19T02:36:30;15.5;98.6
7455;HTU21D;3769;51.208;4.454;2023-09-19T02:41:30;15.4;98.6
7455;HTU21D;3769;51.208;4.454;2023-09-19T02:46:30;15.5;98.6
7455;HTU21D;3769;51.208;4.454;2023-09-19T02:51:30;15.6;98.6
7455;HTU21D;3769;51.208;4.454;2023-09-19T02:56:30;15.5;98.6
7455;HTU21D;3769;51.208;4.454;2023-09-19T03:01:30;15.5;98.6
7455;HTU21D;3769;51.208;4.454;2023-09-19T03:06:30;15.5;98.6
7455;HTU21D;3769;51.208;4.454;2023-09-19T03:11:30;15.5;98.6
7455;HTU21D;3769;51.208;4.454;2023-09-19T03:16:30;15.4;98.6
7455;HTU21D;3769;51.208;4.454;2023-09-19T03:21:30;15.5;98.6
7455;HTU21D;3769;51.208;4.454;2023-09-19T03:26:30;15.5;98.6
7455;HTU21D;3769;51.208;4.454;2023-09-19T03:31:30;15.6;98.6
7455;HTU21D;3769;51.208;4.454;2023-09-19T03:36:30;15.6;98.6
7455;HTU21D;3769;51.208;4.454;2023-09-19T03:41:31;15.5;98.6
7455;HTU21D;3769;51.208;4.454;2023-09-19T03:46:30;15.7;98.6
7455;HTU21D;3769;51.208;4.454;2023-09-19T03:51:30;15.5;98.6
7455;HTU21D;3769;51.208;4.454;2023-09-19T03:56:30;15.4;98.6
7455;HTU21D;3769;51.208;4.454;2023-09-19T04:01:30;15.4;98.6
7455;HTU21D;3769;51.208;4.454;2023-09-19T04:06:30;15.3;98.5
7455;HTU21D;3769;51.208;4.454;2023-09-19T04:11:30;15.3;98.6
7455;HTU21D;3769;51.208;4.454;2023-09-19T04:16:30;15.3;98.5
7455;HTU21D;3769;51.208;4.454;2023-09-19T04:21:30;15.2;98.5
7455;HTU21D;3769;51.208;4.454;2023-09-19T04:26:30;15.3;98.5
7455;HTU21D;3769;51.208;4.454;2023-09-19T04:31:30;15.2;98.5
7455;HTU21D;3769;51.208;4.454;2023-09-19T04:36:30;15.3;98.5
7455;HTU21D;3769;51.208;4.454;2023-09-19T04:41:30;15.2;98.5
7455;HTU21D;3769;51.208;4.454;2023-09-19T04:46:30;15.2;98.5
7455;HTU21D;3769;51.208;4.454;2023-09-19T04:51:30;15;98.5
7455;HTU21D;3769;51.208;4.454;2023-09-19T04:56:30;15.2;98.5
7455;HTU21D;3769;51.208;4.454;2023-09-19T05:01:30;15.1;98.5
7455;HTU21D;3769;51.208;4.454;2023-09-19T05:06:30;15.1;98.5
7455;HTU21D;3769;51.208;4.454;2023-09-19T05:11:30;15.1;98.5
7455;HTU21D;3769;51.208;4.454;2023-09-19T05:16:30;15;98.5
7455;HTU21D;3769;51.208;4.454;2023-09-19T05:21:31;15;98.5
7455;HTU21D;3769;51.208;4.454;2023-09-19T05:26:30;15;98.5
7455;HTU21D;3769;51.208;4.454;2023-09-19T05:31:31;15.1;98.5
7455;HTU21D;3769;51.208;4.454;2023-09-19T05:36:30;15;98.5
7455;HTU21D;3769;51.208;4.454;2023-09-19T05:41:30;14.9;98.5
7455;HTU21D;3769;51.208;4.454;2023-09-19T05:46:30;15;98.5
7455;HTU21D;3769;51.208;4.454;2023-09-19T05:51:30;15;98.5
7455;HTU21D;3769;51.208;4.454;2023-09-19T05:56:30;15;98.5
7455;HTU21D;3769;51.208;4.454;2023-09-19T06:01:30;15;98.5
7455;HTU21D;3769;51.208;4.454;2023-09-19T06:06:30;15;98.5
7455;HTU21D;3769;51.208;4.454;2023-09-19T06:11:30;15.1;98.5
7455;HTU21D;3769;51.208;4.454;2023-09-19T06:16:30;15.1;98.5
7455;HTU21D;3769;51.208;4.454;2023-09-19T06:21:30;15.2;98.5
7455;HTU21D;3769;51.208;4.454;2023-09-19T06:26:30;15.2;98.5
7455;HTU21D;3769;51.208;4.454;2023-09-19T06:31:30;15.1;98.5
7455;HTU21D;3769;51.208;4.454;2023-09-19T06:36:30;15.2;98.5
7455;HTU21D;3769;51.208;4.454;2023-09-19T06:41:30;15.3;98.5
7455;HTU21D;3769;51.208;4.454;2023-09-19T06:46:30;15.3;98.5
7455;HTU21D;3769;51.208;4.454;2023-09-19T06:51:30;15.2;98.5
7455;HTU21D;3769;51.208;4.454;2023-09-19T06:56:30;15.4;98.6
7455;HTU21D;3769;51.208;4.454;2023-09-19T07:01:30;15.5;98.6
7455;HTU21D;3769;51.208;4.454;2023-09-19T07:06:30;15.5;98.6
7455;HTU21D;3769;51.208;4.454;2023-09-19T07:11:30;15.6;98.6
7455;HTU21D;3769;51.208;4.454;2023-09-19T07:16:30;15.7;98.6
7455;HTU21D;3769;51.208;4.454;2023-09-19T07:21:30;15.8;98.6
7455;HTU21D;3769;51.208;4.454;2023-09-19T07:26:30;15.8;98.6
7455;HTU21D;3769;51.208;4.454;2023-09-19T07:31:30;15.7;98.6
7455;HTU21D;3769;51.208;4.454;2023-09-19T07:36:30;15.8;98.6
7455;HTU21D;3769;51.208;4.454;2023-09-19T07:41:30;15.8;98.6
7455;HTU21D;3769;51.208;4.454;2023-09-19T07:46:30;15.8;98.6
7455;HTU21D;3769;51.208;4.454;2023-09-19T07:51:30;15.9;98.6
7455;HTU21D;3769;51.208;4.454;2023-09-19T07:56:30;15.9;98.6
7455;HTU21D;3769;51.208;4.454;2023-09-19T08:01:30;16;98.7
7455;HTU21D;3769;51.208;4.454;2023-09-19T08:06:30;16.1;98.7
7455;HTU21D;3769;51.208;4.454;2023-09-19T08:11:30;16.1;98.7
7455;HTU21D;3769;51.208;4.454;2023-09-19T08:16:30;16.2;98.7
7455;HTU21D;3769;51.208;4.454;2023-09-19T08:21:30;16.2;98.7
7455;HTU21D;3769;51.208;4.454;2023-09-19T08:26:30;16.5;98.7
7455;HTU21D;3769;51.208;4.454;2023-09-19T08:31:30;16.5;98.7
7455;HTU21D;3769;51.208;4.454;2023-09-19T08:36:30;16.8;98.8
7455;HTU21D;3769;51.208;4.454;2023-09-19T08:41:30;16.9;98.8
7455;HTU21D;3769;51.208;4.454;2023-09-19T08:46:30;17;98.8
7455;HTU21D;3769;51.208;4.454;2023-09-19T08:51:33;17.1;98.8
7455;HTU21D;3769;51.208;4.454;2023-09-19T08:56:30;17;98.8
7455;HTU21D;3769;51.208;4.454;2023-09-19T09:01:31;16.8;98.8
7455;HTU21D;3769;51.208;4.454;2023-09-19T09:06:30;16.8;98.8
7455;HTU21D;3769;51.208;4.454;2023-09-19T09:11:33;16.9;98.8
7455;HTU21D;3769;51.208;4.454;2023-09-19T09:16:30;17;98.8
7455;HTU21D;3769;51.208;4.454;2023-09-19T09:21:30;17;98.8
7455;HTU21D;3769;51.208;4.454;2023-09-19T09:26:46;17.1;98.8
7455;HTU21D;3769;51.208;4.454;2023-09-19T09:31:30;17.3;98.8
7455;HTU21D;3769;51.208;4.454;2023-09-19T09:36:35;17.4;98.9
7455;HTU21D;3769;51.208;4.454;2023-09-19T09:41:37;17.4;98.9
7455;HTU21D;3769;51.208;4.454;2023-09-19T09:46:30;17.5;98.9
7455;HTU21D;3769;51.208;4.454;2023-09-19T09:51:30;17.6;98.9
7455;HTU21D;3769;51.208;4.454;2023-09-19T09:56:31;17.6;98.9
7455;HTU21D;3769;51.208;4.454;2023-09-19T10:01:45;17.7;98.9
7455;HTU21D;3769;51.208;4.454;2023-09-19T10:06:39;17.9;98.9
7455;HTU21D;3769;51.208;4.454;2023-09-19T10:11:30;17.9;98.9
7455;HTU21D;3769;51.208;4.454;2023-09-19T10:16:30;17.9;98.9
7455;HTU21D;3769;51.208;4.454;2023-09-19T10:21:30;18;97.5
7455;HTU21D;3769;51.208;4.454;2023-09-19T10:26:30;18.1;96
7455;HTU21D;3769;51.208;4.454;2023-09-19T10:31:30;18.3;99
7455;HTU21D;3769;51.208;4.454;2023-09-19T10:36:32;18.3;99
7455;HTU21D;3769;51.208;4.454;2023-09-19T10:41:30;18.4;99
7455;HTU21D;3769;51.208;4.454;2023-09-19T10:46:31;18.4;99
7455;HTU21D;3769;51.208;4.454;2023-09-19T10:51:31;18.6;99
7455;HTU21D;3769;51.208;4.454;2023-09-19T10:56:31;18.8;97
7455;HTU21D;3769;51.208;4.454;2023-09-19T11:02:35;18.8;98.5
7455;HTU21D;3769;51.208;4.454;2023-09-19T11:06:30;19;99.1
7455;HTU21D;3769;51.208;4.454;2023-09-19T11:11:46;19.2;96.8
7455;HTU21D;3769;51.208;4.454;2023-09-19T11:16:30;19.2;95.2
7455;HTU21D;3769;51.208;4.454;2023-09-19T11:21:38;19.3;92.6
7455;HTU21D;3769;51.208;4.454;2023-09-19T11:26:46;19.2;92.6
7455;HTU21D;3769;51.208;4.454;2023-09-19T11:31:46;19.6;91.7
7455;HTU21D;3769;51.208;4.454;2023-09-19T11:36:37;19.6;89
7455;HTU21D;3769;51.208;4.454;2023-09-19T11:41:38;19.6;90.8
7455;HTU21D;3769;51.208;4.454;2023-09-19T11:46:31;19.4;90.6
7455;HTU21D;3769;51.208;4.454;2023-09-19T11:51:37;19.4;93
7455;HTU21D;3769;51.208;4.454;2023-09-19T11:56:30;19.3;93
7455;HTU21D;3769;51.208;4.454;2023-09-19T12:01:31;19.3;92.7
7455;HTU21D;3769;51.208;4.454;2023-09-19T12:06:30;19.1;90.9
7455;HTU21D;3769;51.208;4.454;2023-09-19T12:11:30;19.3;92.6
7455;HTU21D;3769;51.208;4.454;2023-09-19T12:16:30;19.5;86
7455;HTU21D;3769;51.208;4.454;2023-09-19T12:21:31;19.7;87
7455;HTU21D;3769;51.208;4.454;2023-09-19T12:26:37;19.7;85.7
7455;HTU21D;3769;51.208;4.454;2023-09-19T12:31:31;19.8;86.3
7455;HTU21D;3769;51.208;4.454;2023-09-19T12:36:30;19.6;85.5
7455;HTU21D;3769;51.208;4.454;2023-09-19T12:41:30;19.6;87.5
7455;HTU21D;3769;51.208;4.454;2023-09-19T12:46:30;19.4;89.7
7455;HTU21D;3769;51.208;4.454;2023-09-19T12:51:35;19.4;91.7
7455;HTU21D;3769;51.208;4.454;2023-09-19T12:56:38;19.3;89.3
7455;HTU21D;3769;51.208;4.454;2023-09-19T13:01:30;19.5;91.8
7455;HTU21D;3769;51.208;4.454;2023-09-19T13:06:38;19.5;87
7455;HTU21D;3769;51.208;4.454;2023-09-19T13:11:35;19.7;90.4
7455;HTU21D;3769;51.208;4.454;2023-09-19T13:16:30;19.6;89.4
7455;HTU21D;3769;51.208;4.454;2023-09-19T13:21:32;19.6;90.3
7455;HTU21D;3769;51.208;4.454;2023-09-19T13:26:30;19.5;93
7455;HTU21D;3769;51.208;4.454;2023-09-19T13:31:30;19.7;90.2
7455;HTU21D;3769;51.208;4.454;2023-09-19T13:36:30;19.6;92.1
7455;HTU21D;3769;51.208;4.454;2023-09-19T13:41:30;19.6;94.1
7455;HTU21D;3769;51.208;4.454;2023-09-19T13:46:31;19.7;92.2
7455;HTU21D;3769;51.208;4.454;2023-09-19T13:51:30;19.8;90.4
7455;HTU21D;3769;51.208;4.454;2023-09-19T13:56:30;20;89
7455;HTU21D;3769;51.208;4.454;2023-09-19T14:01:30;20;89.7
7455;HTU21D;3769;51.208;4.454;2023-09-19T14:06:30;19.9;91.7
7455;HTU21D;3769;51.208;4.454;2023-09-19T14:11:30;20;89.4
7455;HTU21D;3769;51.208;4.454;2023-09-19T14:16:30;19.8;92.7
7455;HTU21D;3769;51.208;4.454;2023-09-19T14:21:30;19.9;89.8
7455;HTU21D;3769;51.208;4.454;2023-09-19T14:26:30;20;89.8
7455;HTU21D;3769;51.208;4.454;2023-09-19T14:31:30;20;89
7455;HTU21D;3769;51.208;4.454;2023-09-19T14:36:30;19.9;88.4
7455;HTU21D;3769;51.208;4.454;2023-09-19T14:41:30;19.8;91.2
7455;HTU21D;3769;51.208;4.454;2023-09-19T14:46:30;19.7;91.8
7455;HTU21D;3769;51.208;4.454;2023-09-19T14:51:30;19.7;92
7455;HTU21D;3769;51.208;4.454;2023-09-19T14:56:30;19.8;92.8
7455;HTU21D;3769;51.208;4.454;2023-09-19T15:01:30;19.7;93.8
7455;HTU21D;3769;51.208;4.454;2023-09-19T15:06:30;19.5;92.7
7455;HTU21D;3769;51.208;4.454;2023-09-19T15:11:30;19.5;93.7
7455;HTU21D;3769;51.208;4.454;2023-09-19T15:16:30;19.4;96.1
7455;HTU21D;3769;51.208;4.454;2023-09-19T15:21:30;19.3;99.1
7455;HTU21D;3769;51.208;4.454;2023-09-19T15:26:30;19.3;99.1
7455;HTU21D;3769;51.208;4.454;2023-09-19T15:31:30;19.2;99.1
7455;HTU21D;3769;51.208;4.454;2023-09-19T15:36:31;19.2;99.1
7455;HTU21D;3769;51.208;4.454;2023-09-19T15:41:33;19.4;96.1
7455;HTU21D;3769;51.208;4.454;2023-09-19T15:46:31;19.4;99.1
7455;HTU21D;3769;51.208;4.454;2023-09-19T15:51:30;19.3;99.2
7455;HTU21D;3769;51.208;4.454;2023-09-19T15:56:30;19.2;99.1
7455;HTU21D;3769;51.208;4.454;2023-09-19T16:01:31;19.2;99.1
7455;HTU21D;3769;51.208;4.454;2023-09-19T16:06:31;19.2;99.1
7455;HTU21D;3769;51.208;4.454;2023-09-19T16:11:33;19.1;99.1
7455;HTU21D;3769;51.208;4.454;2023-09-19T16:16:30;19.1;99.1
7455;HTU21D;3769;51.208;4.454;2023-09-19T16:21:31;19.1;99.1
7455;HTU21D;3769;51.208;4.454;2023-09-19T16:26:30;19.1;99.1
7455;HTU21D;3769;51.208;4.454;2023-09-19T16:31:31;18.9;99.1
7455;HTU21D;3769;51.208;4.454;2023-09-19T16:36:31;19;99.1
7455;HTU21D;3769;51.208;4.454;2023-09-19T16:41:30;19;99.1
7455;HTU21D;3769;51.208;4.454;2023-09-19T16:46:30;19;99.1
7455;HTU21D;3769;51.208;4.454;2023-09-19T16:51:31;18.9;99.1
7455;HTU21D;3769;51.208;4.454;2023-09-19T16:56:30;18.9;99.1
7455;HTU21D;3769;51.208;4.454;2023-09-19T17:01:30;18.8;99.1
7455;HTU21D;3769;51.208;4.454;2023-09-19T17:06:30;18.9;99.1
7455;HTU21D;3769;51.208;4.454;2023-09-19T17:11:30;18.9;99.1
7455;HTU21D;3769;51.208;4.454;2023-09-19T17:16:30;18.9;99.1
7455;HTU21D;3769;51.208;4.454;2023-09-19T17:21:30;18.5;99
7455;HTU21D;3769;51.208;4.454;2023-09-19T17:26:30;18.4;99
7455;HTU21D;3769;51.208;4.454;2023-09-19T17:31:30;18.3;99
7455;HTU21D;3769;51.208;4.454;2023-09-19T17:36:31;18.3;99
7455;HTU21D;3769;51.208;4.454;2023-09-19T17:41:30;18.2;99
7455;HTU21D;3769;51.208;4.454;2023-09-19T17:46:30;18.2;99
7455;HTU21D;3769;51.208;4.454;2023-09-19T17:51:30;18;98.9
7455;HTU21D;3769;51.208;4.454;2023-09-19T17:56:31;18;99
7455;HTU21D;3769;51.208;4.454;2023-09-19T18:01:30;18;99
7455;HTU21D;3769;51.208;4.454;2023-09-19T18:06:31;18;98.9
7455;HTU21D;3769;51.208;4.454;2023-09-19T18:11:31;18;98.9
7455;HTU21D;3769;51.208;4.454;2023-09-19T18:16:31;18;99
7455;HTU21D;3769;51.208;4.454;2023-09-19T18:21:32;18.1;99
7455;HTU21D;3769;51.208;4.454;2023-09-19T18:26:31;18.1;99
7455;HTU21D;3769;51.208;4.454;2023-09-19T18:31:30;18.1;99
7455;HTU21D;3769;51.208;4.454;2023-09-19T18:36:30;18.1;99
7455;HTU21D;3769;51.208;4.454;2023-09-19T18:41:30;18.1;99
7455;HTU21D;3769;51.208;4.454;2023-09-19T18:46:31;18.1;99
7455;HTU21D;3769;51.208;4.454;2023-09-19T18:51:31;18.2;99
7455;HTU21D;3769;51.208;4.454;2023-09-19T18:56:31;18.2;99
7455;HTU21D;3769;51.208;4.454;2023-09-19T19:01:31;18.3;99
7455;HTU21D;3769;51.208;4.454;2023-09-19T19:06:31;18.2;99
7455;HTU21D;3769;51.208;4.454;2023-09-19T19:11:30;18.1;99
7455;HTU21D;3769;51.208;4.454;2023-09-19T19:16:31;18.2;99
7455;HTU21D;3769;51.208;4.454;2023-09-19T19:21:31;18.2;99
7455;HTU21D;3769;51.208;4.454;2023-09-19T19:26:31;18.3;99
7455;HTU21D;3769;51.208;4.454;2023-09-19T19:31:30;18.3;99
7455;HTU21D;3769;51.208;4.454;2023-09-19T19:36:31;18.3;99
7455;HTU21D;3769;51.208;4.454;2023-09-19T19:41:31;18.3;99
7455;HTU21D;3769;51.208;4.454;2023-09-19T19:46:31;18.4;99
7455;HTU21D;3769;51.208;4.454;2023-09-19T19:51:31;18.3;99
7455;HTU21D;3769;51.208;4.454;2023-09-19T19:56:31;18.4;99
7455;HTU21D;3769;51.208;4.454;2023-09-19T20:01:32;18.3;99
7455;HTU21D;3769;51.208;4.454;2023-09-19T20:06:31;18.4;99
7455;HTU21D;3769;51.208;4.454;2023-09-19T20:11:31;18.3;99
7455;HTU21D;3769;51.208;4.454;2023-09-19T20:16:31;18.4;99
7455;HTU21D;3769;51.208;4.454;2023-09-19T20:21:31;18.3;99
7455;HTU21D;3769;51.208;4.454;2023-09-19T20:26:33;18.4;99
7455;HTU21D;3769;51.208;4.454;2023-09-19T20:31:31;18.4;99
7455;HTU21D;3769;51.208;4.454;2023-09-19T20:36:31;18.3;99
7455;HTU21D;3769;51.208;4.454;2023-09-19T20:41:30;18.4;99
7455;HTU21D;3769;51.208;4.454;2023-09-19T20:46:31;18.4;99
7455;HTU21D;3769;51.208;4.454;2023-09-19T20:51:31;18.4;99
7455;HTU21D;3769;51.208;4.454;2023-09-19T20:56:32;18.4;99
7455;HTU21D;3769;51.208;4.454;2023-09-19T21:01:32;18.4;99
7455;HTU21D;3769;51.208;4.454;2023-09-19T21:06:31;18.4;99
7455;HTU21D;3769;51.208;4.454;2023-09-19T21:11:31;18.5;99
7455;HTU21D;3769;51.208;4.454;2023-09-19T21:16:31;18.4;99
7455;HTU21D;3769;51.208;4.454;2023-09-19T21:21:33;18.3;99
7455;HTU21D;3769;51.208;4.454;2023-09-19T21:26:31;18.3;99
7455;HTU21D;3769;51.208;4.454;2023-09-19T21:31:31;18.3;99
7455;HTU21D;3769;51.208;4.454;2023-09-19T21:36:31;18.3;99
7455;HTU21D;3769;51.208;4.454;2023-09-19T21:41:31;18.3;99
7455;HTU21D;3769;51.208;4.454;2023-09-19T21:46:31;18.2;99
7455;HTU21D;3769;51.208;4.454;2023-09-19T21:51:31;18.3;99
7455;HTU21D;3769;51.208;4.454;2023-09-19T21:56:31;18.4;99
7455;HTU21D;3769;51.208;4.454;2023-09-19T22:01:31;18.3;99
7455;HTU21D;3769;51.208;4.454;2023-09-19T22:06:31;18.4;99
7455;HTU21D;3769;51.208;4.454;2023-09-19T22:11:31;18.4;99
7455;HTU21D;3769;51.208;4.454;2023-09-19T22:16:31;18.3;99
7455;HTU21D;3769;51.208;4.454;2023-09-19T22:21:31;18.2;99
7455;HTU21D;3769;51.208;4.454;2023-09-19T22:26:31;18.4;99
7455;HTU21D;3769;51.208;4.454;2023-09-19T22:31:31;18.2;99
7455;HTU21D;3769;51.208;4.454;2023-09-19T22:36:31;18.1;99
7455;HTU21D;3769;51.208;4.454;2023-09-19T22:41:31;18.2;99
7455;HTU21D;3769;51.208;4.454;2023-09-19T22:46:31;18.1;99
7455;HTU21D;3769;51.208;4.454;2023-09-19T22:51:31;18;98.9
7455;HTU21D;3769;51.208;4.454;2023-09-19T22:56:31;18.2;99
7455;HTU21D;3769;51.208;4.454;2023-09-19T23:01:31;18.1;99
7455;HTU21D;3769;51.208;4.454;2023-09-19T23:06:31;18;99
7455;HTU21D;3769;51.208;4.454;2023-09-19T23:11:31;18.1;99
7455;HTU21D;3769;51.208;4.454;2023-09-19T23:16:31;18.1;99
7455;HTU21D;3769;51.208;4.454;2023-09-19T23:21:31;18;98.9
7455;HTU21D;3769;51.208;4.454;2023-09-19T23:26:31;18.1;99
7455;HTU21D;3769;51.208;4.454;2023-09-19T23:31:31;18.1;99
7455;HTU21D;3769;51.208;4.454;2023-09-19T23:36:31;17.9;98.9
7455;HTU21D;3769;51.208;4.454;2023-09-19T23:41:31;18;98.9
7455;HTU21D;3769;51.208;4.454;2023-09-19T23:46:31;17.9;98.9
7455;HTU21D;3769;51.208;4.454;2023-09-19T23:51:31;17.9;98.9
7455;HTU21D;3769;51.208;4.454;2023-09-19T23:56:31;18;98.9
